Time;durP1;ratioP1;P1;durP2;ratioP2;P2;SDS_P1;SDS_P2;PMS_P1;PMS_P2;Temp;Humidity;BMP_temperature;BMP_pressure;BME280_temperature;BME280_humidity;BME280_pressure;Samples;Min_cycle;Max_cycle;Signal;HPM_P1;HPM_P2
2022/06/20 00:00:50;;;;;;;5.18;2.80;;;19.20;99.90;;;;;;5178820;28;20034;-58
2022/06/20 00:03:29;;;;;;;4.68;2.97;;;19.10;99.90;;;;;;5195452;28;20042;-58
2022/06/20 00:09:54;;;;;;;2.78;2.50;;;19.00;99.90;;;;;;5179225;28;20033;-59
2022/06/20 00:12:30;;;;;;;3.30;2.65;;;18.90;99.90;;;;;;5194724;28;20034;-62
2022/06/20 00:15:06;;;;;;;3.22;2.63;;;18.80;99.90;;;;;;5178224;28;20042;-58
2022/06/20 00:17:37;;;;;;;2.70;2.45;;;18.80;99.90;;;;;;5163253;28;20042;-58
2022/06/20 00:20:13;;;;;;;3.63;3.10;;;18.70;99.90;;;;;;5194188;28;20022;-58
2022/06/20 00:22:45;;;;;;;2.97;2.65;;;18.70;99.90;;;;;;5195059;28;20207;-58
2022/06/20 00:25:20;;;;;;;2.53;2.33;;;18.60;99.90;;;;;;5195141;28;20034;-58
2022/06/20 00:27:57;;;;;;;3.17;2.80;;;18.60;99.90;;;;;;5194296;28;20042;-58
2022/06/20 00:30:31;;;;;;;3.63;2.65;;;18.60;99.90;;;;;;5178648;28;20034;-59
2022/06/20 00:33:05;;;;;;;3.80;2.55;;;18.60;99.90;;;;;;5194127;28;20038;-58
2022/06/20 00:35:37;;;;;;;3.13;2.35;;;18.60;99.90;;;;;;5161259;28;20030;-59
2022/06/20 00:38:21;;;;;;;3.85;2.60;;;18.60;99.90;;;;;;5193592;28;20235;-59
2022/06/20 00:41:00;;;;;;;4.28;2.58;;;18.60;99.90;;;;;;5177887;28;20319;-58
2022/06/20 00:43:48;;;;;;;3.10;2.50;;;18.70;99.90;;;;;;5194613;28;20034;-59
2022/06/20 00:46:26;;;;;;;3.42;2.72;;;18.70;99.90;;;;;;5177730;28;20052;-59
2022/06/20 00:49:32;;;;;;;3.58;2.50;;;18.70;99.90;;;;;;5177735;28;20040;-58
2022/06/20 00:52:28;;;;;;;3.78;2.60;;;18.70;99.90;;;;;;5193678;28;20032;-58
2022/06/20 00:55:14;;;;;;;3.05;2.78;;;18.60;99.90;;;;;;5178121;28;20043;-59
2022/06/20 00:58:36;;;;;;;2.92;2.63;;;18.50;99.90;;;;;;5194825;28;20034;-59
2022/06/20 01:01:13;;;;;;;3.38;3.08;;;18.40;99.90;;;;;;5179265;28;20034;-59
2022/06/20 01:03:55;;;;;;;4.07;2.80;;;18.40;99.90;;;;;;5177624;28;20060;-60
2022/06/20 01:06:33;;;;;;;3.00;2.70;;;18.40;99.90;;;;;;5167233;28;20046;-59
2022/06/20 01:09:11;;;;;;;3.03;2.72;;;18.30;99.90;;;;;;5189396;28;20057;-58
2022/06/20 01:11:54;;;;;;;3.35;2.67;;;18.30;99.90;;;;;;5157747;28;20039;-59
2022/06/20 01:14:38;;;;;;;3.45;2.78;;;18.30;99.90;;;;;;5157613;28;20031;-59
2022/06/20 01:17:31;;;;;;;3.67;3.10;;;18.30;99.90;;;;;;5173890;28;20034;-59
2022/06/20 01:20:30;;;;;;;3.90;3.20;;;18.30;99.90;;;;;;5173298;28;20033;-59
2022/06/20 01:23:12;;;;;;;3.03;2.72;;;18.30;99.90;;;;;;5174194;28;20304;-60
2022/06/20 01:29:33;;;;;;;4.10;2.75;;;18.20;99.90;;;;;;5173812;28;20038;-58
2022/06/20 01:32:05;;;;;;;3.75;3.05;;;18.10;99.90;;;;;;5188563;28;20035;-58
2022/06/20 01:34:41;;;;;;;4.95;2.90;;;18.10;99.90;;;;;;5172329;28;20035;-60
2022/06/20 01:37:25;;;;;;;4.40;3.28;;;18.10;99.90;;;;;;5173186;28;20200;-59
2022/06/20 01:40:07;;;;;;;3.45;3.15;;;18.10;99.90;;;;;;5189521;28;20333;-59
2022/06/20 01:42:48;;;;;;;3.30;2.97;;;18.10;99.90;;;;;;5189586;28;20133;-59
2022/06/20 01:48:18;;;;;;;3.85;3.22;;;18.00;99.90;;;;;;5170745;28;20039;-59
2022/06/20 01:54:44;;;;;;;5.68;3.10;;;17.80;99.90;;;;;;5156953;28;20030;-58
2022/06/20 01:57:20;;;;;;;3.05;2.75;;;17.80;99.90;;;;;;5171647;28;20312;-61
2022/06/20 02:00:14;;;;;;;3.95;3.20;;;17.70;99.90;;;;;;5186844;28;20042;-59
2022/06/20 02:02:58;;;;;;;3.42;3.13;;;17.70;99.90;;;;;;5172699;28;20053;-58
2022/06/20 02:05:34;;;;;;;3.50;3.17;;;17.70;99.90;;;;;;5173647;28;20042;-58
2022/06/20 02:08:07;;;;;;;4.55;3.20;;;17.70;99.90;;;;;;5172070;28;20219;-58
2022/06/20 02:10:42;;;;;;;3.88;3.28;;;17.70;99.90;;;;;;5172508;28;20047;-59
2022/06/20 02:13:16;;;;;;;3.78;3.35;;;17.60;99.90;;;;;;5189230;28;20049;-58
2022/06/20 02:15:50;;;;;;;;;;;17.70;99.90;;;;;;5172484;28;20031;-59
2022/06/20 02:18:27;;;;;;;3.20;2.80;;;17.70;99.90;;;;;;5177105;28;19914;-58
2022/06/20 02:21:06;;;;;;;2.92;2.63;;;17.60;99.90;;;;;;5177080;28;20052;-58
2022/06/20 02:23:47;;;;;;;3.75;3.15;;;17.60;99.90;;;;;;5177019;28;20042;-58
2022/06/20 02:26:28;;;;;;;4.47;2.90;;;17.50;99.90;;;;;;5177612;28;20039;-58
2022/06/20 02:29:20;;;;;;;4.82;2.88;;;17.40;99.90;;;;;;5176407;28;20319;-58
2022/06/20 02:32:00;;;;;;;3.20;2.90;;;17.40;99.90;;;;;;5196395;28;20053;-58
2022/06/20 02:34:35;;;;;;;4.28;3.15;;;17.50;99.90;;;;;;5180077;28;20039;-59
2022/06/20 02:37:25;;;;;;;3.70;2.80;;;17.50;99.90;;;;;;5193204;28;20046;-59
2022/06/20 02:40:06;;;;;;;3.70;2.70;;;17.50;99.90;;;;;;5175317;28;20041;-58
2022/06/20 02:43:06;;;;;;;3.35;2.90;;;17.50;99.90;;;;;;5160811;28;20026;-59
2022/06/20 02:45:44;;;;;;;4.03;2.88;;;17.50;99.90;;;;;;5161426;28;20316;-59
2022/06/20 02:48:22;;;;;;;3.45;3.15;;;17.50;99.90;;;;;;5176492;28;20034;-58
2022/06/20 02:51:08;;;;;;;3.05;2.60;;;17.40;99.90;;;;;;5176977;28;20048;-58
2022/06/20 02:54:03;;;;;;;3.17;2.88;;;17.40;99.90;;;;;;5160498;28;20046;-58
2022/06/20 02:56:46;;;;;;;5.18;3.03;;;17.40;99.90;;;;;;5192517;28;20181;-58
2022/06/20 02:59:50;;;;;;;3.55;3.05;;;17.40;99.90;;;;;;5160541;28;20037;-58
2022/06/20 03:02:29;;;;;;;3.75;3.08;;;17.40;99.90;;;;;;5160188;28;20200;-59
2022/06/20 03:05:01;;;;;;;6.38;3.40;;;17.40;99.90;;;;;;5161771;28;20046;-59
2022/06/20 03:07:40;;;;;;;3.42;2.83;;;17.40;99.90;;;;;;5152950;28;20030;-59
2022/06/20 03:10:46;;;;;;;3.67;2.90;;;17.30;99.90;;;;;;5174232;28;20038;-59
2022/06/20 03:13:21;;;;;;;3.53;3.22;;;17.30;99.90;;;;;;5161578;28;20043;-59
2022/06/20 03:15:56;;;;;;;4.57;2.92;;;17.40;99.90;;;;;;5175155;28;20038;-59
2022/06/20 03:18:31;;;;;;;3.15;2.75;;;17.40;99.90;;;;;;5174241;28;20030;-58
2022/06/20 03:21:08;;;;;;;3.70;3.30;;;17.40;99.90;;;;;;5173924;28;20213;-58
2022/06/20 03:23:42;;;;;;;2.67;2.47;;;17.40;99.90;;;;;;5173446;28;20034;-58
2022/06/20 03:26:25;;;;;;;6.05;2.75;;;17.50;99.90;;;;;;5190722;28;20049;-59
2022/06/20 03:29:07;;;;;;;2.97;2.47;;;17.60;99.90;;;;;;5173178;28;20323;-60
2022/06/20 03:31:39;;;;;;;5.85;3.08;;;17.70;99.90;;;;;;5174281;28;20037;-59
2022/06/20 03:34:15;;;;;;;8.10;2.72;;;17.70;99.90;;;;;;5174072;28;20027;-59
2022/06/20 03:36:49;;;;;;;2.40;2.20;;;17.80;99.90;;;;;;5174750;28;20034;-58
2022/06/20 03:39:23;;;;;;;;;;;17.90;99.90;;;;;;5174945;28;20042;-60
2022/06/20 03:41:55;;;;;;;3.05;2.60;;;17.90;99.90;;;;;;5173961;28;19910;-60
2022/06/20 03:44:56;;;;;;;3.20;2.80;;;18.00;99.90;;;;;;5173674;28;20064;-59
2022/06/20 03:47:45;;;;;;;3.15;2.53;;;18.10;99.90;;;;;;5174577;28;20031;-59
2022/06/20 03:50:35;;;;;;;3.90;2.40;;;18.30;99.90;;;;;;5173587;28;20320;-59
2022/06/20 03:53:21;;;;;;;3.10;2.42;;;18.50;99.90;;;;;;5190972;28;20043;-59
2022/06/20 03:56:23;;;;;;;3.08;2.78;;;18.70;99.90;;;;;;5189715;28;20047;-59
2022/06/20 03:59:18;;;;;;;3.25;2.78;;;18.90;99.90;;;;;;5174031;28;20319;-59
2022/06/20 04:02:08;;;;;;;2.65;2.33;;;18.90;99.90;;;;;;5173569;28;20030;-60
2022/06/20 04:04:48;;;;;;;4.78;2.55;;;19.10;99.90;;;;;;5155706;28;20232;-60
2022/06/20 04:07:33;;;;;;;2.70;2.50;;;19.20;99.90;;;;;;5184641;28;20038;-58
2022/06/20 04:13:18;;;;;;;3.20;2.40;;;19.60;99.90;;;;;;5160240;28;20026;-59
2022/06/20 04:16:17;;;;;;;3.08;2.78;;;19.60;99.90;;;;;;5174161;28;20045;-59
2022/06/20 04:19:16;;;;;;;2.45;2.25;;;19.70;99.90;;;;;;5159322;28;20042;-60
2022/06/20 04:22:08;;;;;;;3.80;2.95;;;19.80;99.90;;;;;;5159461;28;20043;-59
2022/06/20 04:24:54;;;;;;;4.43;2.55;;;19.90;99.90;;;;;;5174221;28;20038;-60
2022/06/20 04:27:30;;;;;;;3.20;2.55;;;20.20;99.90;;;;;;5173361;28;20224;-60
2022/06/20 04:30:11;;;;;;;2.30;2.10;;;20.30;99.90;;;;;;5174042;28;20334;-60
2022/06/20 04:32:54;;;;;;;2.55;2.33;;;20.40;99.90;;;;;;5174287;28;20201;-60
2022/06/20 04:35:35;;;;;;;3.13;2.67;;;20.60;99.90;;;;;;5173697;28;20034;-61
2022/06/20 04:38:46;;;;;;;2.65;2.33;;;20.80;99.90;;;;;;5173420;28;20324;-60
2022/06/20 04:41:57;;;;;;;3.17;2.42;;;20.80;99.90;;;;;;5177588;28;20042;-60
2022/06/20 04:44:40;;;;;;;2.40;2.17;;;20.80;99.90;;;;;;5170969;28;20327;-60
2022/06/20 04:47:29;;;;;;;4.78;2.42;;;21.00;99.90;;;;;;5176807;28;20046;-60
2022/06/20 04:50:01;;;;;;;3.33;2.25;;;21.20;99.90;;;;;;5193003;28;20323;-61
2022/06/20 04:52:35;;;;;;;2.95;2.60;;;21.50;99.90;;;;;;5176790;28;20058;-61
2022/06/20 04:55:13;;;;;;;;;;;21.70;99.90;;;;;;5176646;28;20114;-61
2022/06/20 04:57:48;;;;;;;4.05;2.40;;;21.80;99.90;;;;;;5198241;28;20087;-60
2022/06/20 05:00:30;;;;;;;3.53;2.63;;;21.70;99.90;;;;;;5176381;28;20125;-59
2022/06/20 05:03:01;;;;;;;2.53;2.22;;;21.70;99.90;;;;;;5176120;28;20045;-59
2022/06/20 05:05:44;;;;;;;2.85;2.38;;;21.70;99.90;;;;;;5164140;28;20118;-60
2022/06/20 05:08:25;;;;;;;2.75;2.45;;;21.70;99.90;;;;;;5150765;28;20851;-61
2022/06/20 05:11:21;;;;;;;2.67;2.42;;;21.70;99.90;;;;;;5152407;28;20062;-62
2022/06/20 05:14:27;;;;;;;2.55;2.00;;;21.90;99.90;;;;;;5165014;28;20051;-60
2022/06/20 05:17:05;;;;;;;2.28;1.90;;;22.20;99.90;;;;;;5135674;28;20052;-61
2022/06/20 05:19:49;;;;;;;2.97;2.65;;;22.50;99.90;;;;;;5152648;28;20203;-61
2022/06/20 05:22:27;;;;;;;2.92;2.20;;;22.90;99.90;;;;;;5157663;28;20026;-61
2022/06/20 05:25:10;;;;;;;3.45;1.85;;;23.10;99.90;;;;;;5173992;28;20337;-60
2022/06/20 05:27:57;;;;;;;6.15;2.40;;;23.70;99.90;;;;;;5152429;28;20044;-60
2022/06/20 05:30:40;;;;;;;2.30;2.00;;;24.20;99.90;;;;;;5182863;28;20030;-61
2022/06/20 05:33:41;;;;;;;2.33;2.13;;;24.50;99.90;;;;;;5191333;28;20042;-60
2022/06/20 05:36:49;;;;;;;1.80;1.70;;;24.60;99.90;;;;;;5208910;28;20044;-61
2022/06/20 05:39:41;;;;;;;2.05;1.83;;;24.70;99.90;;;;;;5191893;28;20034;-61
2022/06/20 05:42:18;;;;;;;1.80;1.60;;;24.80;99.90;;;;;;5208615;28;20034;-61
2022/06/20 05:44:58;;;;;;;2.40;1.92;;;25.10;99.90;;;;;;5209880;28;20030;-60
2022/06/20 05:47:38;;;;;;;2.17;1.90;;;25.30;99.90;;;;;;5209005;28;20196;-59
2022/06/20 05:50:31;;;;;;;3.20;2.30;;;25.70;99.90;;;;;;5208178;28;20040;-60
2022/06/20 05:53:14;;;;;;;2.03;1.67;;;25.50;99.90;;;;;;5193381;28;20045;-61
2022/06/20 05:55:52;;;;;;;2.28;2.08;;;25.50;99.90;;;;;;5181733;28;20219;-61
2022/06/20 05:58:32;;;;;;;2.17;1.98;;;25.30;99.90;;;;;;5173738;28;20036;-61
2022/06/20 06:01:13;;;;;;;2.47;2.17;;;25.20;99.90;;;;;;5155573;28;20052;-64
2022/06/20 06:04:20;;;;;;;3.95;2.05;;;25.60;99.90;;;;;;5155567;28;20037;-61
2022/06/20 06:07:04;;;;;;;2.88;2.30;;;25.50;99.90;;;;;;5157797;28;20056;-62
2022/06/20 06:09:47;;;;;;;2.40;2.17;;;25.60;99.90;;;;;;5186394;28;20052;-61
2022/06/20 06:12:40;;;;;;;2.70;2.20;;;25.70;99.90;;;;;;5183766;28;20034;-62
2022/06/20 06:16:46;;;;;;;2.03;1.75;;;25.80;99.90;;;;;;5170506;28;20050;-63
2022/06/20 06:18:42;;;;;;;2.38;2.17;;;26.30;99.90;;;;;;5149812;28;20026;-60
2022/06/20 06:21:14;;;;;;;2.60;2.00;;;26.20;99.90;;;;;;5170548;28;20028;-62
2022/06/20 06:23:54;;;;;;;2.00;1.80;;;26.40;99.90;;;;;;5160387;28;20354;-60
2022/06/20 06:26:26;;;;;;;2.55;2.17;;;26.50;99.90;;;;;;5171308;28;20022;-62
2022/06/20 06:29:01;;;;;;;2.33;2.08;;;27.00;99.90;;;;;;5140588;28;20287;-61
2022/06/20 06:31:40;;;;;;;4.85;2.20;;;27.10;99.90;;;;;;5154810;28;20196;-61
2022/06/20 06:34:36;;;;;;;2.22;2.03;;;27.00;99.90;;;;;;5154294;28;20038;-62
2022/06/20 06:37:23;;;;;;;3.83;2.05;;;27.00;99.90;;;;;;5170317;28;20026;-62
2022/06/20 06:40:18;;;;;;;2.25;2.05;;;28.00;99.90;;;;;;5169364;28;20048;-61
2022/06/20 06:42:54;;;;;;;5.50;1.70;;;28.00;99.90;;;;;;5156934;28;20030;-62
2022/06/20 06:45:33;;;;;;;2.20;2.00;;;27.90;99.90;;;;;;5151576;28;20088;-60
2022/06/20 06:48:40;;;;;;;2.20;2.00;;;28.60;99.90;;;;;;5187314;28;20061;-63
2022/06/20 06:51:26;;;;;;;2.72;1.92;;;28.30;99.90;;;;;;5164804;28;20042;-61
2022/06/20 06:54:09;;;;;;;2.35;2.00;;;28.80;99.90;;;;;;5155316;28;20243;-62
2022/06/20 06:56:50;;;;;;;2.83;2.38;;;29.20;99.90;;;;;;5187574;28;20230;-63
2022/06/20 07:00:04;;;;;;;2.53;2.03;;;29.60;99.90;;;;;;5185302;28;20038;-61
2022/06/20 07:02:49;;;;;;;2.90;2.03;;;29.20;99.90;;;;;;5143836;28;20228;-62
2022/06/20 07:05:39;;;;;;;2.97;2.03;;;29.80;99.90;;;;;;5185563;28;20358;-62
2022/06/20 07:08:29;;;;;;;2.05;1.85;;;29.70;99.90;;;;;;5166631;28;20030;-62
2022/06/20 07:11:18;;;;;;;1.92;1.75;;;29.60;99.90;;;;;;5191522;28;20054;-60
2022/06/20 07:14:23;;;;;;;2.10;1.90;;;29.70;99.90;;;;;;5191423;28;20044;-62
2022/06/20 07:17:27;;;;;;;2.40;2.10;;;30.10;99.90;;;;;;5170079;28;20347;-61
2022/06/20 07:20:02;;;;;;;2.38;2.17;;;30.00;99.90;;;;;;5190482;28;20038;-61
2022/06/20 07:22:36;;;;;;;2.78;2.08;;;29.90;99.90;;;;;;5159920;28;20034;-62
2022/06/20 07:25:22;;;;;;;2.55;2.08;;;29.90;99.90;;;;;;5176068;28;20030;-64
2022/06/20 07:28:06;;;;;;;1.80;1.70;;;29.70;99.90;;;;;;5190582;28;20216;-61
2022/06/20 07:30:46;;;;;;;2.58;2.28;;;29.70;99.90;;;;;;5174942;28;20026;-63
2022/06/20 07:33:51;;;;;;;3.50;2.10;;;29.80;99.90;;;;;;5166370;28;20236;-62
2022/06/20 07:36:44;;;;;;;1.85;1.67;;;29.90;99.90;;;;;;5168775;28;20335;-63
2022/06/20 07:39:30;;;;;;;2.20;2.00;;;30.10;99.90;;;;;;5191622;28;20356;-63
2022/06/20 07:42:16;;;;;;;2.33;1.70;;;30.40;99.90;;;;;;5184234;28;20034;-60
2022/06/20 07:44:55;;;;;;;2.75;1.92;;;30.70;99.90;;;;;;5158142;28;20030;-63
2022/06/20 07:47:36;;;;;;;2.63;2.00;;;31.00;99.90;;;;;;5145703;28;20036;-61
2022/06/20 07:50:19;;;;;;;2.30;2.10;;;31.30;99.90;;;;;;5175306;28;20171;-61
2022/06/20 07:53:10;;;;;;;5.07;2.23;;;31.30;99.90;;;;;;5181272;28;20036;-65
2022/06/20 07:55:56;;;;;;;4.88;2.10;;;31.10;99.90;;;;;;5173932;28;20026;-63
2022/06/20 07:58:48;;;;;;;2.92;2.15;;;31.50;99.90;;;;;;5173753;28;20022;-61
2022/06/20 08:01:33;;;;;;;5.85;2.35;;;31.70;99.90;;;;;;5157764;28;20068;-61
2022/06/20 08:04:10;;;;;;;2.20;2.00;;;31.50;99.90;;;;;;5176218;28;20334;-62
2022/06/20 08:06:55;;;;;;;2.50;2.17;;;31.50;99.90;;;;;;5166282;28;20058;-63
2022/06/20 08:09:44;;;;;;;2.58;2.38;;;31.50;99.90;;;;;;5189829;28;20356;-62
2022/06/20 08:12:46;;;;;;;2.38;2.15;;;31.40;99.90;;;;;;5188443;28;20026;-63
2022/06/20 08:15:53;;;;;;;3.08;2.28;;;32.00;99.90;;;;;;5158342;28;20038;-62
2022/06/20 08:18:26;;;;;;;3.42;2.53;;;32.40;99.90;;;;;;5174711;28;20323;-61
2022/06/20 08:21:08;;;;;;;2.97;2.17;;;32.50;99.90;;;;;;5192431;28;20275;-63
2022/06/20 08:23:46;;;;;;;2.70;2.50;;;32.40;99.90;;;;;;5154762;28;20038;-63
2022/06/20 08:26:35;;;;;;;2.25;2.05;;;32.30;99.90;;;;;;5173130;28;20034;-62
2022/06/20 08:29:22;;;;;;;2.92;2.70;;;32.60;99.90;;;;;;5176778;28;20072;-62
2022/06/20 08:32:04;;;;;;;5.10;2.47;;;32.90;99.90;;;;;;5176758;28;20410;-62
2022/06/20 08:34:52;;;;;;;2.30;2.10;;;33.00;99.90;;;;;;5179594;28;20398;-62
2022/06/20 08:37:52;;;;;;;2.00;1.90;;;33.00;99.90;;;;;;5163742;28;20335;-62
2022/06/20 08:40:37;;;;;;;4.15;2.67;;;33.10;99.90;;;;;;5176597;28;20065;-62
2022/06/20 08:43:23;;;;;;;3.20;2.30;;;33.00;99.90;;;;;;5189910;28;20328;-64
2022/06/20 08:46:04;;;;;;;2.40;2.20;;;33.10;99.90;;;;;;5184979;28;20041;-62
2022/06/20 08:49:02;;;;;;;2.50;2.30;;;33.30;99.90;;;;;;5178692;28;20040;-63
2022/06/20 08:52:14;;;;;;;2.40;2.20;;;33.60;99.90;;;;;;5190838;28;20130;-62
2022/06/20 08:55:34;;;;;;;2.95;2.35;;;33.00;99.90;;;;;;5194597;28;20052;-63
2022/06/20 08:58:50;;;;;;;2.95;2.45;;;33.20;99.90;;;;;;5191955;28;20032;-63
2022/06/20 09:01:39;;;;;;;2.50;2.30;;;33.10;99.90;;;;;;5175661;28;20026;-62
2022/06/20 09:05:02;;;;;;;3.13;2.83;;;33.30;99.90;;;;;;5159879;28;20295;-60
2022/06/20 09:08:15;;;;;;;2.40;2.20;;;33.20;99.90;;;;;;5171409;28;20025;-63
2022/06/20 09:11:00;;;;;;;2.33;2.05;;;33.70;99.90;;;;;;5173467;28;20046;-63
2022/06/20 09:14:26;;;;;;;3.45;2.53;;;33.40;99.90;;;;;;5193528;28;20315;-62
2022/06/20 09:17:14;;;;;;;2.88;1.90;;;33.70;99.90;;;;;;5177354;28;20235;-60
2022/06/20 09:20:05;;;;;;;2.97;2.47;;;34.20;99.90;;;;;;5178621;28;20722;-61
2022/06/20 09:22:48;;;;;;;2.25;2.10;;;33.50;99.90;;;;;;5169987;28;20028;-62
2022/06/20 09:25:41;;;;;;;2.42;2.20;;;34.00;99.90;;;;;;5192015;28;20038;-62
2022/06/20 09:28:25;;;;;;;2.42;2.22;;;33.80;99.90;;;;;;5177279;28;20333;-62
2022/06/20 09:31:52;;;;;;;2.88;2.53;;;34.40;99.90;;;;;;5171771;28;20041;-63
2022/06/20 09:34:37;;;;;;;3.67;2.50;;;34.50;99.90;;;;;;5172556;28;20139;-63
2022/06/20 09:37:36;;;;;;;4.65;2.75;;;34.80;99.90;;;;;;5195092;28;20040;-63
2022/06/20 09:40:38;;;;;;;2.80;2.58;;;34.80;99.90;;;;;;5187541;28;20038;-64
2022/06/20 09:43:22;;;;;;;2.47;2.28;;;34.50;99.90;;;;;;5192558;28;20036;-61
2022/06/20 09:46:19;;;;;;;;;;;35.50;99.90;;;;;;5176146;28;20365;-63
2022/06/20 09:49:15;;;;;;;2.85;2.65;;;36.20;99.90;;;;;;5170102;28;19916;-65
2022/06/20 09:52:14;;;;;;;2.30;2.10;;;36.10;99.90;;;;;;5185509;28;20064;-63
2022/06/20 09:55:16;;;;;;;2.70;2.50;;;37.10;99.90;;;;;;5157817;28;20026;-63
2022/06/20 09:58:10;;;;;;;3.63;2.55;;;35.30;99.90;;;;;;5162274;28;20030;-62
2022/06/20 10:01:09;;;;;;;4.93;2.95;;;33.70;99.90;;;;;;5191672;28;20033;-62
2022/06/20 10:04:29;;;;;;;4.07;3.25;;;33.00;99.90;;;;;;5192335;28;20034;-62
2022/06/20 10:07:29;;;;;;;2.85;2.65;;;32.60;99.90;;;;;;5163996;28;20058;-63
2022/06/20 10:10:29;;;;;;;3.60;2.63;;;33.00;99.90;;;;;;5173697;28;20042;-61
2022/06/20 10:13:19;;;;;;;3.10;2.85;;;33.50;99.90;;;;;;5178185;28;20091;-62
2022/06/20 10:16:30;;;;;;;4.70;2.65;;;34.40;99.90;;;;;;5191383;28;20030;-62
2022/06/20 10:19:16;;;;;;;3.42;3.10;;;35.00;99.90;;;;;;5171675;28;20034;-63
2022/06/20 10:22:12;;;;;;;3.70;3.20;;;35.60;99.90;;;;;;5175985;28;20025;-62
2022/06/20 10:25:11;;;;;;;3.83;3.40;;;33.70;99.90;;;;;;5175405;28;20022;-62
2022/06/20 10:28:32;;;;;;;7.97;4.20;;;31.90;99.90;;;;;;5173184;28;20038;-63
2022/06/20 10:31:43;;;;;;;4.95;3.88;;;31.10;99.90;;;;;;5178809;28;20042;-62
2022/06/20 10:34:42;;;;;;;6.20;3.90;;;31.20;99.90;;;;;;5186934;28;20045;-62
2022/06/20 10:37:37;;;;;;;7.57;4.03;;;31.20;99.90;;;;;;5186667;28;20030;-62
2022/06/20 10:40:40;;;;;;;5.40;4.63;;;31.00;99.90;;;;;;5194479;28;20289;-63
2022/06/20 10:43:42;;;;;;;6.70;4.57;;;30.80;99.90;;;;;;5196562;28;20333;-62
2022/06/20 10:46:41;;;;;;;12.55;4.53;;;30.30;99.90;;;;;;5151369;28;20045;-62
2022/06/20 10:49:24;;;;;;;5.78;4.40;;;31.00;99.90;;;;;;5195858;28;20332;-63
2022/06/20 10:52:42;;;;;;;6.38;4.57;;;31.40;99.90;;;;;;5180022;28;20231;-61
2022/06/20 10:56:01;;;;;;;4.53;4.10;;;30.90;99.90;;;;;;5184045;28;20276;-62
2022/06/20 10:58:44;;;;;;;6.22;4.22;;;31.60;99.90;;;;;;5183288;28;20022;-62
2022/06/20 11:01:38;;;;;;;13.98;4.32;;;31.20;99.90;;;;;;5162043;28;20030;-61
2022/06/20 11:04:45;;;;;;;6.82;4.85;;;31.20;99.90;;;;;;5166396;28;20319;-61
2022/06/20 11:07:31;;;;;;;7.78;3.90;;;31.70;99.90;;;;;;5180672;28;20478;-62
2022/06/20 11:10:16;;;;;;;10.10;4.05;;;31.60;99.90;;;;;;5182530;28;20096;-63
2022/06/20 11:13:22;;;;;;;7.30;4.32;;;31.50;99.90;;;;;;5194537;28;20026;-62
2022/06/20 11:15:56;;;;;;;6.10;4.65;;;32.80;99.90;;;;;;5161507;28;20046;-61
2022/06/20 11:19:19;;;;;;;7.20;4.38;;;32.10;99.90;;;;;;5175562;28;20324;-64
2022/06/20 11:22:44;;;;;;;6.82;3.95;;;32.30;99.90;;;;;;5177589;28;20048;-61
2022/06/20 11:25:42;;;;;;;6.13;4.25;;;31.70;99.90;;;;;;5194623;28;20299;-61
2022/06/20 11:28:31;;;;;;;5.05;4.10;;;31.30;99.90;;;;;;5195658;28;20306;-61
2022/06/20 11:31:35;;;;;;;6.28;3.45;;;30.90;99.90;;;;;;5175483;28;20235;-63
2022/06/20 11:34:30;;;;;;;3.95;3.38;;;30.00;99.90;;;;;;5183707;28;20345;-63
2022/06/20 11:37:43;;;;;;;7.18;3.25;;;29.80;99.90;;;;;;5179707;28;20046;-62
2022/06/20 11:40:57;;;;;;;8.23;4.30;;;29.80;99.90;;;;;;5194457;28;20044;-62
2022/06/20 11:44:06;;;;;;;5.97;3.63;;;29.40;99.90;;;;;;5194373;28;20236;-61
2022/06/20 11:46:57;;;;;;;4.70;3.60;;;28.40;99.90;;;;;;5177452;28;20394;-59
2022/06/20 11:50:09;;;;;;;7.28;3.78;;;28.20;99.90;;;;;;5178681;28;20026;-62
2022/06/20 11:53:08;;;;;;;9.45;4.68;;;28.70;99.90;;;;;;5173625;28;20037;-61
2022/06/20 11:55:53;;;;;;;4.97;3.42;;;28.70;99.90;;;;;;5194907;28;20022;-62
2022/06/20 11:59:01;;;;;;;6.00;4.03;;;29.00;99.90;;;;;;5194629;28;20041;-63
2022/06/20 12:01:45;;;;;;;4.72;3.88;;;28.20;99.90;;;;;;5161920;28;20423;-60
2022/06/20 12:04:34;;;;;;;5.00;3.72;;;27.40;99.90;;;;;;5182776;28;20028;-62
2022/06/20 12:07:25;;;;;;;5.70;3.45;;;27.20;99.90;;;;;;5176196;28;20044;-61
2022/06/20 12:10:37;;;;;;;4.38;3.40;;;27.70;99.90;;;;;;5177518;28;20225;-62
2022/06/20 12:13:21;;;;;;;7.93;3.58;;;28.10;99.90;;;;;;5188782;28;20052;-63
2022/06/20 12:16:06;;;;;;;5.78;3.75;;;27.80;99.90;;;;;;5180049;28;20333;-60
2022/06/20 12:24:54;;;;;;;8.63;4.10;;;29.10;99.90;;;;;;5193548;28;20026;-63
2022/06/20 12:27:30;;;;;;;6.93;3.45;;;30.30;99.90;;;;;;5184685;28;20034;-61
2022/06/20 12:30:01;;;;;;;5.28;3.90;;;30.70;99.90;;;;;;5186025;28;20026;-62
2022/06/20 12:32:34;;;;;;;5.80;3.30;;;30.90;99.90;;;;;;5189782;28;20041;-61
2022/06/20 12:35:31;;;;;;;3.92;3.10;;;31.20;99.90;;;;;;5187770;28;20026;-61
2022/06/20 12:38:22;;;;;;;13.90;3.60;;;31.80;99.90;;;;;;5155680;28;20454;-61
2022/06/20 12:41:05;;;;;;;6.22;3.50;;;31.00;99.90;;;;;;5188875;28;20037;-62
2022/06/20 12:44:11;;;;;;;8.43;3.87;;;32.60;99.90;;;;;;5177916;28;20315;-63
2022/06/20 12:47:06;;;;;;;5.30;3.63;;;33.10;99.90;;;;;;5194310;28;20245;-62
2022/06/20 12:50:23;;;;;;;5.90;3.25;;;33.40;99.90;;;;;;5177393;28;20037;-62
2022/06/20 12:53:22;;;;;;;5.18;3.30;;;32.30;99.90;;;;;;5184167;28;20242;-62
2022/06/20 12:56:09;;;;;;;4.10;2.80;;;33.10;99.90;;;;;;5200919;28;20030;-63
2022/06/20 12:58:58;;;;;;;4.53;3.40;;;34.60;99.90;;;;;;5198546;28;20346;-60
2022/06/20 13:01:59;;;;;;;4.10;3.25;;;33.90;99.90;;;;;;5198167;28;20307;-60
2022/06/20 13:04:48;;;;;;;5.18;2.72;;;32.00;99.90;;;;;;5194978;28;20331;-61
2022/06/20 13:08:00;;;;;;;3.63;3.33;;;32.20;99.90;;;;;;5177953;28;20040;-64
2022/06/20 13:11:05;;;;;;;4.05;3.50;;;33.00;99.90;;;;;;5169348;28;20025;-62
2022/06/20 13:13:42;;;;;;;2.97;2.67;;;33.50;99.90;;;;;;5182556;28;20456;-62
2022/06/20 13:16:19;;;;;;;5.05;3.13;;;33.50;99.90;;;;;;5174039;28;20324;-62
2022/06/20 13:19:27;;;;;;;4.93;3.25;;;34.30;99.90;;;;;;5178027;28;20293;-63
2022/06/20 13:22:08;;;;;;;4.20;2.88;;;34.20;99.90;;;;;;5190083;28;20046;-62
2022/06/20 13:25:21;;;;;;;6.80;3.60;;;34.80;99.90;;;;;;5202272;28;20030;-61
2022/06/20 13:28:24;;;;;;;2.67;2.42;;;34.90;99.90;;;;;;5187798;28;20022;-62
2022/06/20 13:31:07;;;;;;;4.20;3.00;;;34.50;99.90;;;;;;5184861;28;20034;-62
2022/06/20 13:33:53;;;;;;;3.60;2.67;;;34.40;99.90;;;;;;5178606;28;20040;-61
2022/06/20 13:36:43;;;;;;;4.75;2.17;;;35.20;99.90;;;;;;5178782;28;20351;-61
2022/06/20 13:39:48;;;;;;;3.08;2.80;;;35.50;99.90;;;;;;5194111;28;20037;-63
2022/06/20 13:42:43;;;;;;;2.33;2.05;;;36.20;99.90;;;;;;5173164;28;20026;-63
2022/06/20 13:45:32;;;;;;;2.75;2.00;;;36.70;99.90;;;;;;5190801;28;20299;-62
2022/06/20 13:48:28;;;;;;;4.05;2.50;;;37.60;99.90;;;;;;5173106;28;20039;-63
2022/06/20 13:51:24;;;;;;;2.65;2.45;;;37.90;99.90;;;;;;5174864;28;20311;-61
2022/06/20 13:54:38;;;;;;;2.17;1.98;;;35.70;99.90;;;;;;5192953;28;20032;-63
2022/06/20 13:57:38;;;;;;;2.45;2.08;;;34.60;99.90;;;;;;5193159;28;20033;-62
2022/06/20 14:00:19;;;;;;;2.83;2.22;;;34.40;99.90;;;;;;5193074;28;20478;-59
2022/06/20 14:03:24;;;;;;;2.22;1.88;;;33.20;99.90;;;;;;5193351;28;20294;-62
2022/06/20 14:06:14;;;;;;;2.72;2.03;;;34.90;99.90;;;;;;5181203;28;20134;-60
2022/06/20 14:09:02;;;;;;;2.33;2.13;;;35.00;99.90;;;;;;5192490;28;20034;-62
2022/06/20 14:11:40;;;;;;;2.45;2.25;;;35.90;99.90;;;;;;5195491;28;20048;-61
2022/06/20 14:14:29;;;;;;;2.33;2.05;;;35.10;99.90;;;;;;5182497;28;20038;-64
2022/06/20 14:17:18;;;;;;;1.75;1.65;;;34.60;99.90;;;;;;5201530;28;20029;-60
2022/06/20 14:19:52;;;;;;;2.08;1.70;;;35.40;99.90;;;;;;5180734;28;20226;-63
2022/06/20 14:22:34;;;;;;;4.88;1.92;;;35.20;99.90;;;;;;5187563;28;20331;-61
2022/06/20 14:25:47;;;;;;;2.20;1.98;;;34.70;99.90;;;;;;5199434;28;20044;-60
2022/06/20 14:28:28;;;;;;;5.03;2.30;;;34.60;99.90;;;;;;5190643;28;20045;-60
2022/06/20 14:31:28;;;;;;;2.45;2.08;;;35.30;99.90;;;;;;5195819;28;20044;-63
2022/06/20 14:34:22;;;;;;;2.85;2.10;;;35.60;99.90;;;;;;5213194;28;20034;-61
2022/06/20 14:37:16;;;;;;;5.07;2.20;;;36.80;99.90;;;;;;5207874;28;20040;-61
2022/06/20 14:39:59;;;;;;;3.30;2.13;;;36.60;99.90;;;;;;5211686;28;20041;-61
2022/06/20 14:42:44;;;;;;;2.35;2.00;;;36.40;99.90;;;;;;5193754;28;20030;-64
2022/06/20 14:45:21;;;;;;;3.65;2.42;;;35.40;99.90;;;;;;5206986;28;20033;-61
2022/06/20 14:48:25;;;;;;;3.72;2.40;;;35.00;99.90;;;;;;5182163;28;20045;-62
2022/06/20 14:51:18;;;;;;;2.97;2.40;;;35.70;99.90;;;;;;5182632;28;20056;-63
2022/06/20 14:53:55;;;;;;;3.13;2.28;;;35.10;99.90;;;;;;5195155;28;20034;-62
2022/06/20 14:56:41;;;;;;;4.55;2.30;;;35.20;99.90;;;;;;5178271;28;20030;-63
2022/06/20 14:59:33;;;;;;;2.40;2.20;;;34.00;99.90;;;;;;5192251;28;20040;-63
2022/06/20 15:02:11;;;;;;;5.50;3.05;;;34.00;99.90;;;;;;5192783;28;20352;-62
2022/06/20 15:05:08;;;;;;;3.67;2.72;;;33.30;99.90;;;;;;5167764;28;20056;-63